Saturday, November 1, 2014, 4:03 AM EDT
Back to Local

KCXY, Harrisburg Capital City

Location: New Cumberland, PA, United States Lat: 40.217
Local Time: 4:03 AM EDT ( 8:03 GMT) Lon: -76.85
Time Zone: US/Eastern Elev: 347 ft

Show me the last for .
Show Decoded

2014-11-01 02:56 METAR KCXY 010656Z AUTO 00000KT 10SM OVC029 08/04 A2984 RMK AO2 RAE0557 SLP106
                 P0000 T00830044 =
2014-11-01 01:56 METAR KCXY 010556Z AUTO 36006KT 10SM -RA OVC037 08/04 A2984 RMK AO2 RAB01 SLP107
                 P0001 60001 T00830039 10094 20072 58013 =
2014-11-01 00:56 METAR KCXY 010456Z AUTO 00000KT 10SM OVC046 08/03 A2986 RMK AO2 SLP112 T00830033
                 401220072 =
2014-10-31 22:56 METAR KCXY 010256Z AUTO 00000KT 10SM OVC060 07/03 A2988 RMK AO2 SLP120 T00720028
                 58001 =
2014-10-31 21:56 METAR KCXY 010156Z AUTO 00000KT 10SM OVC060 09/02 A2988 RMK AO2 SLP121 T00890022
                 =
2014-10-31 20:56 METAR KCXY 010056Z AUTO 11005KT 10SM BKN055 09/02 A2989 RMK AO2 SLP122 T00890022
                 =
2014-10-31 19:56 METAR KCXY 312356Z 00000KT 10SM OVC060 09/02 A2988 RMK AO2 SLP121 T00890022
                 10122 20083 50002 =
2014-10-31 18:56 METAR KCXY 312256Z 00000KT 10SM OVC060 11/02 A2989 RMK AO2 SLP123 T01060017 =
2014-10-31 17:56 METAR KCXY 312156Z 00000KT 10SM OVC060 11/02 A2988 RMK AO2 SLP121 T01060017 =
2014-10-31 16:56 METAR KCXY 312056Z 00000KT 10SM OVC055 12/00 A2988 RMK AO2 SLP120 T01170000
                 56017 =
2014-10-31 15:56 METAR KCXY 311956Z 00000KT 10SM CLR 12/01 A2988 RMK AO2 SLP121 T01170011 =
2014-10-31 14:56 METAR KCXY 311856Z 00000KT 10SM OVC060 11/02 A2990 RMK AO2 SLP128 T01110017 =
2014-10-31 13:56 METAR KCXY 311756Z VRB03KT 10SM OVC060 11/02 A2993 RMK AO2 SLP137 T01060017
                 10106 20083 58023 =
2014-10-31 12:56 METAR KCXY 311656Z 10004KT 10SM OVC060 11/02 A2995 RMK AO2 SLP144 T01060017 =
2014-10-31 11:56 METAR KCXY 311556Z 09003KT 10SM OVC060 10/02 A2999 RMK AO2 SLP156 T01000017 =
2014-10-31 10:56 METAR KCXY 311456Z 08005KT 10SM OVC060 09/02 A3000 RMK AO2 SLP160 T00940017
                 58004 =
2014-10-31 09:56 METAR KCXY 311356Z 08006KT 10SM OVC060 08/02 A3001 RMK AO2 SLP163 T00830017 =
2014-10-31 08:56 METAR KCXY 311256Z 08005KT 10SM OVC055 08/02 A3002 RMK AO2 SLP168 T00830022 =
2014-10-31 07:56 METAR KCXY 311156Z 10005KT 10SM OVC055 08/03 A3001 RMK AO2 SLP164 T00830028
                 10094 20078 58001 =
2014-10-31 06:56 METAR KCXY 311056Z 10005KT 10SM OVC055 08/03 A3001 RMK AO2 SLP165 T00780033 =
2014-10-31 05:56 METAR KCXY 310956Z AUTO 00000KT 10SM OVC060 08/03 A3001 RMK AO2 SLP166 T00830033
                 =
2014-10-31 04:56 METAR KCXY 310856Z AUTO 06003KT 10SM OVC060 09/03 A3001 RMK AO2 SLP165 T00890028
                 58005 =

Support USWX by starting your Amazon purchase here.